sensor_id;sensor_type;location;lat;lon;timestamp;P1;durP1;ratioP1;P2;durP2;ratioP2
55003;SDS011;40900;52.710;6.438;2022-10-15T00:02:16;90.47;;;55.67;;
55003;SDS011;40900;52.710;6.438;2022-10-15T00:04:42;86.00;;;54.55;;
55003;SDS011;40900;52.710;6.438;2022-10-15T00:07:08;88.63;;;54.47;;
55003;SDS011;40900;52.710;6.438;2022-10-15T00:09:34;78.80;;;53.45;;
55003;SDS011;40900;52.710;6.438;2022-10-15T00:12:00;61.50;;;43.17;;
55003;SDS011;40900;52.710;6.438;2022-10-15T00:14:26;81.82;;;51.38;;
55003;SDS011;40900;52.710;6.438;2022-10-15T00:16:52;90.18;;;55.88;;
55003;SDS011;40900;52.710;6.438;2022-10-15T00:19:18;79.60;;;51.13;;
55003;SDS011;40900;52.710;6.438;2022-10-15T00:21:44;70.18;;;50.92;;
55003;SDS011;40900;52.710;6.438;2022-10-15T00:24:11;86.65;;;54.85;;
55003;SDS011;40900;52.710;6.438;2022-10-15T00:26:37;80.90;;;53.45;;
55003;SDS011;40900;52.710;6.438;2022-10-15T00:29:03;82.22;;;53.55;;
55003;SDS011;40900;52.710;6.438;2022-10-15T00:31:29;81.05;;;52.38;;
55003;SDS011;40900;52.710;6.438;2022-10-15T00:33:56;75.00;;;50.53;;
55003;SDS011;40900;52.710;6.438;2022-10-15T00:36:24;82.03;;;52.92;;
55003;SDS011;40900;52.710;6.438;2022-10-15T00:38:50;77.63;;;52.05;;
55003;SDS011;40900;52.710;6.438;2022-10-15T00:43:44;71.60;;;51.60;;
55003;SDS011;40900;52.710;6.438;2022-10-15T00:46:22;75.63;;;51.58;;
55003;SDS011;40900;52.710;6.438;2022-10-15T00:48:49;72.30;;;48.58;;
55003;SDS011;40900;52.710;6.438;2022-10-15T00:51:16;70.75;;;49.85;;
55003;SDS011;40900;52.710;6.438;2022-10-15T00:53:44;79.80;;;51.42;;
55003;SDS011;40900;52.710;6.438;2022-10-15T00:56:10;72.30;;;48.50;;
55003;SDS011;40900;52.710;6.438;2022-10-15T00:58:37;80.75;;;51.25;;
55003;SDS011;40900;52.710;6.438;2022-10-15T01:01:03;79.65;;;51.47;;
55003;SDS011;40900;52.710;6.438;2022-10-15T01:03:29;86.60;;;53.08;;
55003;SDS011;40900;52.710;6.438;2022-10-15T01:05:55;72.88;;;48.50;;
55003;SDS011;40900;52.710;6.438;2022-10-15T01:08:21;79.25;;;48.90;;
55003;SDS011;40900;52.710;6.438;2022-10-15T01:10:59;77.32;;;50.47;;
55003;SDS011;40900;52.710;6.438;2022-10-15T01:13:38;86.93;;;52.38;;
55003;SDS011;40900;52.710;6.438;2022-10-15T01:16:11;76.90;;;49.65;;
55003;SDS011;40900;52.710;6.438;2022-10-15T01:18:45;78.55;;;48.95;;
55003;SDS011;40900;52.710;6.438;2022-10-15T01:21:15;76.57;;;49.17;;
55003;SDS011;40900;52.710;6.438;2022-10-15T01:27:03;72.85;;;45.63;;
55003;SDS011;40900;52.710;6.438;2022-10-15T01:32:18;73.40;;;48.45;;
55003;SDS011;40900;52.710;6.438;2022-10-15T01:34:49;74.80;;;48.30;;
55003;SDS011;40900;52.710;6.438;2022-10-15T01:37:19;73.75;;;48.15;;
55003;SDS011;40900;52.710;6.438;2022-10-15T01:39:49;72.53;;;46.97;;
55003;SDS011;40900;52.710;6.438;2022-10-15T01:42:19;75.68;;;46.92;;
55003;SDS011;40900;52.710;6.438;2022-10-15T01:44:49;77.47;;;46.00;;
55003;SDS011;40900;52.710;6.438;2022-10-15T01:47:18;71.82;;;45.83;;
55003;SDS011;40900;52.710;6.438;2022-10-15T01:49:45;74.93;;;46.30;;
55003;SDS011;40900;52.710;6.438;2022-10-15T01:52:14;68.40;;;44.90;;
55003;SDS011;40900;52.710;6.438;2022-10-15T01:54:41;69.25;;;44.47;;
55003;SDS011;40900;52.710;6.438;2022-10-15T01:57:08;73.32;;;45.97;;
55003;SDS011;40900;52.710;6.438;2022-10-15T01:59:35;72.15;;;44.72;;
55003;SDS011;40900;52.710;6.438;2022-10-15T02:02:01;68.13;;;43.88;;
55003;SDS011;40900;52.710;6.438;2022-10-15T02:04:28;77.05;;;44.72;;
55003;SDS011;40900;52.710;6.438;2022-10-15T02:14:46;63.70;;;41.35;;
55003;SDS011;40900;52.710;6.438;2022-10-15T02:17:16;66.20;;;41.88;;
55003;SDS011;40900;52.710;6.438;2022-10-15T02:22:18;65.65;;;40.95;;
55003;SDS011;40900;52.710;6.438;2022-10-15T02:24:57;64.18;;;39.95;;
55003;SDS011;40900;52.710;6.438;2022-10-15T02:27:26;58.97;;;38.75;;
55003;SDS011;40900;52.710;6.438;2022-10-15T02:29:53;62.92;;;40.20;;
55003;SDS011;40900;52.710;6.438;2022-10-15T02:32:20;65.57;;;39.95;;
55003;SDS011;40900;52.710;6.438;2022-10-15T02:34:46;55.83;;;39.00;;
55003;SDS011;40900;52.710;6.438;2022-10-15T02:37:13;64.93;;;39.88;;
55003;SDS011;40900;52.710;6.438;2022-10-15T02:39:41;64.78;;;40.25;;
55003;SDS011;40900;52.710;6.438;2022-10-15T02:42:08;58.88;;;38.03;;
55003;SDS011;40900;52.710;6.438;2022-10-15T02:44:34;60.97;;;39.58;;
55003;SDS011;40900;52.710;6.438;2022-10-15T02:47:00;59.03;;;38.63;;
55003;SDS011;40900;52.710;6.438;2022-10-15T02:49:27;57.80;;;39.60;;
55003;SDS011;40900;52.710;6.438;2022-10-15T02:51:53;65.13;;;40.88;;
55003;SDS011;40900;52.710;6.438;2022-10-15T02:54:19;63.25;;;39.03;;
55003;SDS011;40900;52.710;6.438;2022-10-15T02:56:45;62.97;;;39.38;;
55003;SDS011;40900;52.710;6.438;2022-10-15T02:59:11;61.85;;;40.47;;
55003;SDS011;40900;52.710;6.438;2022-10-15T03:01:37;62.88;;;41.53;;
55003;SDS011;40900;52.710;6.438;2022-10-15T03:04:04;63.67;;;42.03;;
55003;SDS011;40900;52.710;6.438;2022-10-15T03:06:30;70.30;;;43.67;;
55003;SDS011;40900;52.710;6.438;2022-10-15T03:08:56;68.35;;;42.42;;
55003;SDS011;40900;52.710;6.438;2022-10-15T03:11:22;68.78;;;42.97;;
55003;SDS011;40900;52.710;6.438;2022-10-15T03:13:48;62.90;;;43.33;;
55003;SDS011;40900;52.710;6.438;2022-10-15T03:16:14;63.65;;;44.90;;
55003;SDS011;40900;52.710;6.438;2022-10-15T03:18:40;65.60;;;43.67;;
55003;SDS011;40900;52.710;6.438;2022-10-15T03:21:06;66.63;;;45.97;;
55003;SDS011;40900;52.710;6.438;2022-10-15T03:23:32;68.63;;;45.70;;
55003;SDS011;40900;52.710;6.438;2022-10-15T03:25:58;72.43;;;47.72;;
55003;SDS011;40900;52.710;6.438;2022-10-15T03:28:24;68.75;;;46.03;;
55003;SDS011;40900;52.710;6.438;2022-10-15T03:30:50;75.32;;;48.05;;
55003;SDS011;40900;52.710;6.438;2022-10-15T03:33:16;74.22;;;48.03;;
55003;SDS011;40900;52.710;6.438;2022-10-15T03:35:43;73.10;;;49.28;;
55003;SDS011;40900;52.710;6.438;2022-10-15T03:38:09;73.70;;;49.50;;
55003;SDS011;40900;52.710;6.438;2022-10-15T03:40:35;79.30;;;51.28;;
55003;SDS011;40900;52.710;6.438;2022-10-15T03:43:01;76.88;;;50.92;;
55003;SDS011;40900;52.710;6.438;2022-10-15T03:45:27;82.18;;;52.25;;
55003;SDS011;40900;52.710;6.438;2022-10-15T03:47:53;87.63;;;53.58;;
55003;SDS011;40900;52.710;6.438;2022-10-15T03:50:19;77.72;;;52.15;;
55003;SDS011;40900;52.710;6.438;2022-10-15T03:52:46;83.75;;;53.72;;
55003;SDS011;40900;52.710;6.438;2022-10-15T03:55:12;85.88;;;54.45;;
55003;SDS011;40900;52.710;6.438;2022-10-15T03:57:38;88.95;;;56.20;;
55003;SDS011;40900;52.710;6.438;2022-10-15T04:00:05;90.70;;;55.90;;
55003;SDS011;40900;52.710;6.438;2022-10-15T04:02:31;87.15;;;54.92;;
55003;SDS011;40900;52.710;6.438;2022-10-15T04:04:57;89.25;;;57.20;;
55003;SDS011;40900;52.710;6.438;2022-10-15T04:07:24;90.13;;;56.55;;
55003;SDS011;40900;52.710;6.438;2022-10-15T04:09:50;95.80;;;59.40;;
55003;SDS011;40900;52.710;6.438;2022-10-15T04:12:16;90.65;;;56.25;;
55003;SDS011;40900;52.710;6.438;2022-10-15T04:14:42;98.90;;;58.83;;
55003;SDS011;40900;52.710;6.438;2022-10-15T04:17:08;97.90;;;60.00;;
55003;SDS011;40900;52.710;6.438;2022-10-15T04:19:34;94.95;;;58.83;;
55003;SDS011;40900;52.710;6.438;2022-10-15T04:22:00;95.15;;;59.17;;
55003;SDS011;40900;52.710;6.438;2022-10-15T04:24:26;96.18;;;59.08;;
55003;SDS011;40900;52.710;6.438;2022-10-15T04:26:52;107.88;;;59.53;;
55003;SDS011;40900;52.710;6.438;2022-10-15T04:29:18;99.47;;;59.63;;
55003;SDS011;40900;52.710;6.438;2022-10-15T04:31:44;94.75;;;59.55;;
55003;SDS011;40900;52.710;6.438;2022-10-15T04:34:10;98.15;;;58.30;;
55003;SDS011;40900;52.710;6.438;2022-10-15T04:36:36;100.45;;;58.95;;
55003;SDS011;40900;52.710;6.438;2022-10-15T04:39:03;96.47;;;56.92;;
55003;SDS011;40900;52.710;6.438;2022-10-15T04:41:30;96.00;;;58.60;;
55003;SDS011;40900;52.710;6.438;2022-10-15T04:43:56;102.95;;;60.80;;
55003;SDS011;40900;52.710;6.438;2022-10-15T04:46:22;105.55;;;61.38;;
55003;SDS011;40900;52.710;6.438;2022-10-15T04:48:48;99.75;;;59.05;;
55003;SDS011;40900;52.710;6.438;2022-10-15T04:51:17;92.90;;;56.45;;
55003;SDS011;40900;52.710;6.438;2022-10-15T04:53:44;89.13;;;55.63;;
55003;SDS011;40900;52.710;6.438;2022-10-15T04:56:11;107.47;;;59.10;;
55003;SDS011;40900;52.710;6.438;2022-10-15T04:58:42;103.53;;;59.97;;
55003;SDS011;40900;52.710;6.438;2022-10-15T05:01:09;98.05;;;58.25;;
55003;SDS011;40900;52.710;6.438;2022-10-15T05:03:39;102.82;;;58.92;;
55003;SDS011;40900;52.710;6.438;2022-10-15T05:06:06;106.88;;;60.95;;
55003;SDS011;40900;52.710;6.438;2022-10-15T05:08:34;104.07;;;61.20;;
55003;SDS011;40900;52.710;6.438;2022-10-15T05:11:04;103.15;;;60.20;;
55003;SDS011;40900;52.710;6.438;2022-10-15T05:13:30;112.13;;;62.40;;
55003;SDS011;40900;52.710;6.438;2022-10-15T05:15:56;111.80;;;63.80;;
55003;SDS011;40900;52.710;6.438;2022-10-15T05:18:23;112.60;;;62.10;;
55003;SDS011;40900;52.710;6.438;2022-10-15T05:20:49;114.78;;;64.28;;
55003;SDS011;40900;52.710;6.438;2022-10-15T05:23:15;110.75;;;62.45;;
55003;SDS011;40900;52.710;6.438;2022-10-15T05:25:41;106.72;;;64.03;;
55003;SDS011;40900;52.710;6.438;2022-10-15T05:28:07;116.10;;;64.53;;
55003;SDS011;40900;52.710;6.438;2022-10-15T05:30:33;107.22;;;62.85;;
55003;SDS011;40900;52.710;6.438;2022-10-15T05:32:59;115.22;;;65.43;;
55003;SDS011;40900;52.710;6.438;2022-10-15T05:35:25;111.97;;;64.35;;
55003;SDS011;40900;52.710;6.438;2022-10-15T05:37:51;108.63;;;65.57;;
55003;SDS011;40900;52.710;6.438;2022-10-15T05:40:17;105.75;;;61.92;;
55003;SDS011;40900;52.710;6.438;2022-10-15T05:42:44;105.63;;;64.60;;
55003;SDS011;40900;52.710;6.438;2022-10-15T05:45:15;100.78;;;62.00;;
55003;SDS011;40900;52.710;6.438;2022-10-15T05:47:41;104.55;;;61.83;;
55003;SDS011;40900;52.710;6.438;2022-10-15T05:50:07;104.60;;;62.33;;
55003;SDS011;40900;52.710;6.438;2022-10-15T05:52:33;107.65;;;63.47;;
55003;SDS011;40900;52.710;6.438;2022-10-15T05:54:59;111.35;;;62.67;;
55003;SDS011;40900;52.710;6.438;2022-10-15T05:57:25;94.60;;;60.33;;
55003;SDS011;40900;52.710;6.438;2022-10-15T05:59:51;95.63;;;60.83;;
55003;SDS011;40900;52.710;6.438;2022-10-15T06:02:17;96.32;;;60.60;;
55003;SDS011;40900;52.710;6.438;2022-10-15T06:04:43;105.18;;;61.42;;
55003;SDS011;40900;52.710;6.438;2022-10-15T06:07:12;96.60;;;60.08;;
55003;SDS011;40900;52.710;6.438;2022-10-15T06:09:38;96.90;;;58.70;;
55003;SDS011;40900;52.710;6.438;2022-10-15T06:12:04;107.50;;;61.13;;
55003;SDS011;40900;52.710;6.438;2022-10-15T06:14:30;99.75;;;59.78;;
55003;SDS011;40900;52.710;6.438;2022-10-15T06:16:56;104.35;;;61.42;;
55003;SDS011;40900;52.710;6.438;2022-10-15T06:19:22;98.35;;;61.22;;
55003;SDS011;40900;52.710;6.438;2022-10-15T06:21:48;98.90;;;59.85;;
55003;SDS011;40900;52.710;6.438;2022-10-15T06:24:14;105.65;;;60.97;;
55003;SDS011;40900;52.710;6.438;2022-10-15T06:26:40;102.15;;;59.35;;
55003;SDS011;40900;52.710;6.438;2022-10-15T06:29:06;98.38;;;59.72;;
55003;SDS011;40900;52.710;6.438;2022-10-15T06:31:32;100.55;;;58.95;;
55003;SDS011;40900;52.710;6.438;2022-10-15T06:33:58;107.25;;;60.40;;
55003;SDS011;40900;52.710;6.438;2022-10-15T06:36:24;101.45;;;61.03;;
55003;SDS011;40900;52.710;6.438;2022-10-15T06:38:50;100.40;;;60.45;;
55003;SDS011;40900;52.710;6.438;2022-10-15T06:41:16;99.60;;;58.95;;
55003;SDS011;40900;52.710;6.438;2022-10-15T06:43:42;99.00;;;60.30;;
55003;SDS011;40900;52.710;6.438;2022-10-15T06:46:11;110.32;;;61.88;;
55003;SDS011;40900;52.710;6.438;2022-10-15T06:48:37;105.95;;;60.92;;
55003;SDS011;40900;52.710;6.438;2022-10-15T06:51:04;100.60;;;60.72;;
55003;SDS011;40900;52.710;6.438;2022-10-15T06:53:30;101.53;;;60.92;;
55003;SDS011;40900;52.710;6.438;2022-10-15T06:55:57;99.05;;;59.70;;
55003;SDS011;40900;52.710;6.438;2022-10-15T06:58:23;101.43;;;60.17;;
55003;SDS011;40900;52.710;6.438;2022-10-15T07:00:49;95.82;;;60.13;;
55003;SDS011;40900;52.710;6.438;2022-10-15T07:03:15;100.30;;;61.63;;
55003;SDS011;40900;52.710;6.438;2022-10-15T07:05:41;99.25;;;62.25;;
55003;SDS011;40900;52.710;6.438;2022-10-15T07:08:07;104.10;;;62.85;;
55003;SDS011;40900;52.710;6.438;2022-10-15T07:10:33;99.63;;;62.30;;
55003;SDS011;40900;52.710;6.438;2022-10-15T07:13:00;100.80;;;63.95;;
55003;SDS011;40900;52.710;6.438;2022-10-15T07:15:27;100.82;;;61.45;;
55003;SDS011;40900;52.710;6.438;2022-10-15T07:17:53;101.72;;;63.53;;
55003;SDS011;40900;52.710;6.438;2022-10-15T07:20:26;95.88;;;61.50;;
55003;SDS011;40900;52.710;6.438;2022-10-15T07:22:58;101.13;;;62.17;;
55003;SDS011;40900;52.710;6.438;2022-10-15T07:25:25;97.97;;;61.25;;
55003;SDS011;40900;52.710;6.438;2022-10-15T07:27:51;97.07;;;61.45;;
55003;SDS011;40900;52.710;6.438;2022-10-15T07:30:19;96.70;;;61.20;;
55003;SDS011;40900;52.710;6.438;2022-10-15T07:32:45;94.13;;;62.38;;
55003;SDS011;40900;52.710;6.438;2022-10-15T07:35:11;101.97;;;62.92;;
55003;SDS011;40900;52.710;6.438;2022-10-15T07:37:37;98.18;;;61.63;;
55003;SDS011;40900;52.710;6.438;2022-10-15T07:40:03;93.35;;;61.00;;
55003;SDS011;40900;52.710;6.438;2022-10-15T07:42:30;69.82;;;48.03;;
55003;SDS011;40900;52.710;6.438;2022-10-15T07:44:56;95.18;;;62.33;;
55003;SDS011;40900;52.710;6.438;2022-10-15T07:47:23;98.88;;;63.35;;
55003;SDS011;40900;52.710;6.438;2022-10-15T07:49:49;96.07;;;62.42;;
55003;SDS011;40900;52.710;6.438;2022-10-15T07:52:15;92.25;;;61.47;;
55003;SDS011;40900;52.710;6.438;2022-10-15T07:54:41;103.10;;;65.25;;
55003;SDS011;40900;52.710;6.438;2022-10-15T07:57:07;98.35;;;63.88;;
55003;SDS011;40900;52.710;6.438;2022-10-15T07:59:34;99.80;;;64.82;;
55003;SDS011;40900;52.710;6.438;2022-10-15T08:02:00;97.40;;;62.47;;
55003;SDS011;40900;52.710;6.438;2022-10-15T08:04:26;99.70;;;63.67;;
55003;SDS011;40900;52.710;6.438;2022-10-15T08:06:52;101.63;;;65.65;;
55003;SDS011;40900;52.710;6.438;2022-10-15T08:09:18;98.45;;;64.20;;
55003;SDS011;40900;52.710;6.438;2022-10-15T08:11:44;100.40;;;66.00;;
55003;SDS011;40900;52.710;6.438;2022-10-15T08:14:10;106.78;;;67.78;;
55003;SDS011;40900;52.710;6.438;2022-10-15T08:16:36;104.63;;;64.93;;
55003;SDS011;40900;52.710;6.438;2022-10-15T08:19:02;107.35;;;66.43;;
55003;SDS011;40900;52.710;6.438;2022-10-15T08:21:29;111.38;;;65.95;;
55003;SDS011;40900;52.710;6.438;2022-10-15T08:23:55;112.43;;;67.35;;
55003;SDS011;40900;52.710;6.438;2022-10-15T08:26:21;114.45;;;66.15;;
55003;SDS011;40900;52.710;6.438;2022-10-15T08:28:47;115.78;;;67.45;;
55003;SDS011;40900;52.710;6.438;2022-10-15T08:31:15;116.28;;;64.95;;
55003;SDS011;40900;52.710;6.438;2022-10-15T08:33:42;111.13;;;61.75;;
55003;SDS011;40900;52.710;6.438;2022-10-15T08:36:10;119.68;;;64.38;;
55003;SDS011;40900;52.710;6.438;2022-10-15T08:38:36;119.13;;;65.45;;
55003;SDS011;40900;52.710;6.438;2022-10-15T08:41:03;114.30;;;62.47;;
55003;SDS011;40900;52.710;6.438;2022-10-15T08:43:37;120.57;;;64.35;;
55003;SDS011;40900;52.710;6.438;2022-10-15T08:46:08;141.73;;;66.32;;
55003;SDS011;40900;52.710;6.438;2022-10-15T08:48:37;128.60;;;65.32;;
55003;SDS011;40900;52.710;6.438;2022-10-15T08:51:08;129.50;;;64.63;;
55003;SDS011;40900;52.710;6.438;2022-10-15T08:53:37;130.75;;;65.00;;
55003;SDS011;40900;52.710;6.438;2022-10-15T08:56:04;128.02;;;63.53;;
55003;SDS011;40900;52.710;6.438;2022-10-15T09:01:23;119.32;;;60.35;;
55003;SDS011;40900;52.710;6.438;2022-10-15T09:04:11;115.13;;;58.20;;
55003;SDS011;40900;52.710;6.438;2022-10-15T09:06:39;109.93;;;58.50;;
55003;SDS011;40900;52.710;6.438;2022-10-15T09:11:38;99.57;;;54.22;;
55003;SDS011;40900;52.710;6.438;2022-10-15T09:14:08;94.93;;;52.72;;
55003;SDS011;40900;52.710;6.438;2022-10-15T09:16:36;95.25;;;51.50;;
55003;SDS011;40900;52.710;6.438;2022-10-15T09:19:04;92.78;;;51.72;;
55003;SDS011;40900;52.710;6.438;2022-10-15T09:21:34;82.00;;;48.08;;
55003;SDS011;40900;52.710;6.438;2022-10-15T09:24:01;81.30;;;46.75;;
55003;SDS011;40900;52.710;6.438;2022-10-15T09:26:41;74.40;;;43.30;;
55003;SDS011;40900;52.710;6.438;2022-10-15T09:32:24;66.72;;;41.72;;
55003;SDS011;40900;52.710;6.438;2022-10-15T09:34:43;59.08;;;37.50;;
55003;SDS011;40900;52.710;6.438;2022-10-15T09:37:37;62.95;;;39.30;;
55003;SDS011;40900;52.710;6.438;2022-10-15T09:42:43;56.70;;;36.90;;
55003;SDS011;40900;52.710;6.438;2022-10-15T09:45:11;62.15;;;39.10;;
55003;SDS011;40900;52.710;6.438;2022-10-15T09:47:39;58.92;;;36.50;;
55003;SDS011;40900;52.710;6.438;2022-10-15T09:50:06;58.15;;;36.90;;
55003;SDS011;40900;52.710;6.438;2022-10-15T09:52:43;58.55;;;38.85;;
55003;SDS011;40900;52.710;6.438;2022-10-15T09:57:39;60.17;;;38.20;;
55003;SDS011;40900;52.710;6.438;2022-10-15T10:00:08;58.58;;;37.50;;
55003;SDS011;40900;52.710;6.438;2022-10-15T10:02:35;55.83;;;37.13;;
55003;SDS011;40900;52.710;6.438;2022-10-15T10:07:46;56.30;;;37.73;;
55003;SDS011;40900;52.710;6.438;2022-10-15T10:10:22;55.13;;;36.58;;
55003;SDS011;40900;52.710;6.438;2022-10-15T10:12:49;54.30;;;37.38;;
55003;SDS011;40900;52.710;6.438;2022-10-15T10:15:27;50.03;;;35.42;;
55003;SDS011;40900;52.710;6.438;2022-10-15T10:17:56;44.15;;;33.33;;
55003;SDS011;40900;52.710;6.438;2022-10-15T10:20:23;38.42;;;30.85;;
55003;SDS011;40900;52.710;6.438;2022-10-15T10:22:50;40.92;;;30.85;;
55003;SDS011;40900;52.710;6.438;2022-10-15T10:27:53;34.83;;;29.13;;
55003;SDS011;40900;52.710;6.438;2022-10-15T10:30:19;34.30;;;28.48;;
55003;SDS011;40900;52.710;6.438;2022-10-15T10:32:45;33.38;;;27.10;;
55003;SDS011;40900;52.710;6.438;2022-10-15T10:35:22;35.70;;;27.20;;
55003;SDS011;40900;52.710;6.438;2022-10-15T10:37:48;30.92;;;26.13;;
55003;SDS011;40900;52.710;6.438;2022-10-15T10:40:20;33.05;;;27.30;;
55003;SDS011;40900;52.710;6.438;2022-10-15T10:42:47;36.28;;;27.67;;
55003;SDS011;40900;52.710;6.438;2022-10-15T10:45:18;32.70;;;26.40;;
55003;SDS011;40900;52.710;6.438;2022-10-15T10:47:44;32.78;;;27.10;;
55003;SDS011;40900;52.710;6.438;2022-10-15T10:50:30;32.17;;;26.15;;
55003;SDS011;40900;52.710;6.438;2022-10-15T10:52:57;33.00;;;26.90;;
55003;SDS011;40900;52.710;6.438;2022-10-15T10:55:37;34.38;;;25.40;;
55003;SDS011;40900;52.710;6.438;2022-10-15T10:58:04;32.08;;;25.45;;
55003;SDS011;40900;52.710;6.438;2022-10-15T11:00:44;29.88;;;24.88;;
55003;SDS011;40900;52.710;6.438;2022-10-15T11:03:20;30.98;;;25.20;;
55003;SDS011;40900;52.710;6.438;2022-10-15T11:05:47;28.80;;;24.42;;
55003;SDS011;40900;52.710;6.438;2022-10-15T11:08:19;31.42;;;24.33;;
55003;SDS011;40900;52.710;6.438;2022-10-15T11:10:53;28.33;;;23.73;;
55003;SDS011;40900;52.710;6.438;2022-10-15T11:15:56;27.92;;;24.15;;
55003;SDS011;40900;52.710;6.438;2022-10-15T11:21:03;26.13;;;23.05;;
55003;SDS011;40900;52.710;6.438;2022-10-15T11:46:41;28.50;;;23.70;;
55003;SDS011;40900;52.710;6.438;2022-10-15T11:52:06;26.48;;;23.33;;
55003;SDS011;40900;52.710;6.438;2022-10-15T11:54:42;28.13;;;22.50;;
55003;SDS011;40900;52.710;6.438;2022-10-15T11:57:19;28.20;;;24.05;;
55003;SDS011;40900;52.710;6.438;2022-10-15T11:59:50;30.75;;;23.50;;
55003;SDS011;40900;52.710;6.438;2022-10-15T12:02:19;28.02;;;23.52;;
55003;SDS011;40900;52.710;6.438;2022-10-15T12:05:22;29.50;;;24.05;;
55003;SDS011;40900;52.710;6.438;2022-10-15T12:07:40;31.40;;;24.92;;
55003;SDS011;40900;52.710;6.438;2022-10-15T12:12:40;33.45;;;26.15;;
55003;SDS011;40900;52.710;6.438;2022-10-15T12:15:13;36.55;;;26.98;;
55003;SDS011;40900;52.710;6.438;2022-10-15T12:17:50;34.17;;;27.60;;
55003;SDS011;40900;52.710;6.438;2022-10-15T12:20:20;33.10;;;26.25;;
55003;SDS011;40900;52.710;6.438;2022-10-15T12:28:10;36.60;;;26.63;;
55003;SDS011;40900;52.710;6.438;2022-10-15T12:30:39;33.88;;;26.30;;
55003;SDS011;40900;52.710;6.438;2022-10-15T12:33:23;36.78;;;26.85;;
55003;SDS011;40900;52.710;6.438;2022-10-15T12:35:57;36.92;;;27.75;;
55003;SDS011;40900;52.710;6.438;2022-10-15T12:38:31;33.53;;;25.50;;
55003;SDS011;40900;52.710;6.438;2022-10-15T12:40:58;34.85;;;25.83;;
55003;SDS011;40900;52.710;6.438;2022-10-15T12:43:25;36.00;;;25.83;;
55003;SDS011;40900;52.710;6.438;2022-10-15T12:45:53;35.47;;;27.23;;
55003;SDS011;40900;52.710;6.438;2022-10-15T12:48:21;34.15;;;25.45;;
55003;SDS011;40900;52.710;6.438;2022-10-15T12:51:27;36.30;;;25.20;;
55003;SDS011;40900;52.710;6.438;2022-10-15T12:53:43;34.80;;;25.13;;
55003;SDS011;40900;52.710;6.438;2022-10-15T12:58:36;31.85;;;24.15;;
55003;SDS011;40900;52.710;6.438;2022-10-15T13:08:54;27.30;;;20.48;;
55003;SDS011;40900;52.710;6.438;2022-10-15T13:11:39;25.90;;;19.15;;
55003;SDS011;40900;52.710;6.438;2022-10-15T13:16:50;27.80;;;19.73;;
55003;SDS011;40900;52.710;6.438;2022-10-15T13:19:18;22.88;;;18.50;;
55003;SDS011;40900;52.710;6.438;2022-10-15T13:21:51;24.20;;;18.40;;
55003;SDS011;40900;52.710;6.438;2022-10-15T13:24:19;22.60;;;16.80;;
55003;SDS011;40900;52.710;6.438;2022-10-15T13:26:47;25.48;;;16.70;;
55003;SDS011;40900;52.710;6.438;2022-10-15T13:29:17;23.90;;;17.13;;
55003;SDS011;40900;52.710;6.438;2022-10-15T13:31:43;21.80;;;16.77;;
55003;SDS011;40900;52.710;6.438;2022-10-15T13:34:22;23.33;;;17.10;;
55003;SDS011;40900;52.710;6.438;2022-10-15T13:36:48;22.10;;;15.77;;
55003;SDS011;40900;52.710;6.438;2022-10-15T13:39:33;19.48;;;15.65;;
55003;SDS011;40900;52.710;6.438;2022-10-15T13:42:07;21.45;;;15.93;;
55003;SDS011;40900;52.710;6.438;2022-10-15T13:44:34;21.15;;;14.50;;
55003;SDS011;40900;52.710;6.438;2022-10-15T13:47:00;21.35;;;14.55;;
55003;SDS011;40900;52.710;6.438;2022-10-15T13:49:27;18.10;;;13.45;;
55003;SDS011;40900;52.710;6.438;2022-10-15T13:51:53;16.95;;;13.13;;
55003;SDS011;40900;52.710;6.438;2022-10-15T13:54:20;16.17;;;12.77;;
55003;SDS011;40900;52.710;6.438;2022-10-15T13:56:54;16.63;;;12.77;;
55003;SDS011;40900;52.710;6.438;2022-10-15T13:59:22;15.35;;;12.60;;
55003;SDS011;40900;52.710;6.438;2022-10-15T14:01:50;13.77;;;11.45;;
55003;SDS011;40900;52.710;6.438;2022-10-15T14:04:17;14.23;;;12.00;;
55003;SDS011;40900;52.710;6.438;2022-10-15T14:06:51;16.23;;;11.55;;
55003;SDS011;40900;52.710;6.438;2022-10-15T14:09:21;16.08;;;12.30;;
55003;SDS011;40900;52.710;6.438;2022-10-15T14:11:49;15.90;;;12.90;;
55003;SDS011;40900;52.710;6.438;2022-10-15T14:16:56;15.18;;;11.65;;
55003;SDS011;40900;52.710;6.438;2022-10-15T14:19:23;14.65;;;12.00;;
55003;SDS011;40900;52.710;6.438;2022-10-15T14:21:53;15.13;;;12.02;;
55003;SDS011;40900;52.710;6.438;2022-10-15T14:24:20;15.13;;;11.23;;
55003;SDS011;40900;52.710;6.438;2022-10-15T14:26:47;11.65;;;9.30;;
55003;SDS011;40900;52.710;6.438;2022-10-15T14:29:18;11.55;;;9.30;;
55003;SDS011;40900;52.710;6.438;2022-10-15T14:31:46;11.93;;;8.80;;
55003;SDS011;40900;52.710;6.438;2022-10-15T14:36:57;11.80;;;8.02;;
55003;SDS011;40900;52.710;6.438;2022-10-15T14:39:33;10.77;;;8.70;;
55003;SDS011;40900;52.710;6.438;2022-10-15T14:42:00;11.90;;;9.25;;
55003;SDS011;40900;52.710;6.438;2022-10-15T14:44:43;11.50;;;9.35;;
55003;SDS011;40900;52.710;6.438;2022-10-15T14:47:18;11.27;;;9.23;;
55003;SDS011;40900;52.710;6.438;2022-10-15T14:49:45;9.73;;;8.63;;
55003;SDS011;40900;52.710;6.438;2022-10-15T14:52:12;10.30;;;8.88;;
55003;SDS011;40900;52.710;6.438;2022-10-15T14:57:23;11.85;;;9.23;;
55003;SDS011;40900;52.710;6.438;2022-10-15T14:59:53;12.05;;;9.48;;
55003;SDS011;40900;52.710;6.438;2022-10-15T15:02:19;10.45;;;9.00;;
55003;SDS011;40900;52.710;6.438;2022-10-15T15:04:51;10.38;;;8.90;;
55003;SDS011;40900;52.710;6.438;2022-10-15T15:07:18;12.07;;;9.15;;
55003;SDS011;40900;52.710;6.438;2022-10-15T15:09:51;11.02;;;9.00;;
55003;SDS011;40900;52.710;6.438;2022-10-15T15:12:18;9.25;;;8.27;;
55003;SDS011;40900;52.710;6.438;2022-10-15T15:14:45;9.90;;;8.45;;
55003;SDS011;40900;52.710;6.438;2022-10-15T15:17:13;9.98;;;8.50;;
55003;SDS011;40900;52.710;6.438;2022-10-15T15:19:39;9.90;;;8.50;;
55003;SDS011;40900;52.710;6.438;2022-10-15T15:22:07;10.18;;;8.20;;
55003;SDS011;40900;52.710;6.438;2022-10-15T15:24:33;8.93;;;8.02;;
55003;SDS011;40900;52.710;6.438;2022-10-15T15:27:00;9.55;;;8.43;;
55003;SDS011;40900;52.710;6.438;2022-10-15T15:29:26;9.57;;;7.78;;
55003;SDS011;40900;52.710;6.438;2022-10-15T15:31:53;11.45;;;8.13;;
55003;SDS011;40900;52.710;6.438;2022-10-15T15:34:19;8.48;;;7.63;;
55003;SDS011;40900;52.710;6.438;2022-10-15T15:36:47;8.30;;;7.43;;
55003;SDS011;40900;52.710;6.438;2022-10-15T15:39:13;8.32;;;7.32;;
55003;SDS011;40900;52.710;6.438;2022-10-15T15:41:39;7.82;;;7.03;;
55003;SDS011;40900;52.710;6.438;2022-10-15T15:44:05;8.43;;;7.40;;
55003;SDS011;40900;52.710;6.438;2022-10-15T15:46:32;9.02;;;7.25;;
55003;SDS011;40900;52.710;6.438;2022-10-15T15:48:58;7.43;;;6.57;;
55003;SDS011;40900;52.710;6.438;2022-10-15T15:51:25;9.93;;;7.57;;
55003;SDS011;40900;52.710;6.438;2022-10-15T15:53:52;7.05;;;6.35;;
55003;SDS011;40900;52.710;6.438;2022-10-15T15:56:18;7.97;;;6.60;;
55003;SDS011;40900;52.710;6.438;2022-10-15T15:58:45;7.95;;;6.85;;
55003;SDS011;40900;52.710;6.438;2022-10-15T16:01:12;6.82;;;6.13;;
55003;SDS011;40900;52.710;6.438;2022-10-15T16:03:38;7.72;;;6.93;;
55003;SDS011;40900;52.710;6.438;2022-10-15T16:06:06;7.18;;;6.47;;